sensor_id;sensor_type;location;lat;lon;timestamp;P1;durP1;ratioP1;P2;durP2;ratioP2
9823;SDS011;4951;50.778;7.196;2023-01-01T00:02:00;9.03;;;4.70;;
9823;SDS011;4951;50.778;7.196;2023-01-01T00:04:31;5.07;;;3.80;;
9823;SDS011;4951;50.778;7.196;2023-01-01T00:07:01;6.13;;;3.47;;
9823;SDS011;4951;50.778;7.196;2023-01-01T00:09:30;6.93;;;3.00;;
9823;SDS011;4951;50.778;7.196;2023-01-01T00:12:17;3.73;;;2.37;;
9823;SDS011;4951;50.778;7.196;2023-01-01T00:14:52;5.53;;;2.50;;
9823;SDS011;4951;50.778;7.196;2023-01-01T00:17:55;3.00;;;2.70;;
9823;SDS011;4951;50.778;7.196;2023-01-01T00:20:28;4.67;;;2.43;;
9823;SDS011;4951;50.778;7.196;2023-01-01T00:22:56;4.47;;;2.90;;
9823;SDS011;4951;50.778;7.196;2023-01-01T00:25:24;4.33;;;2.50;;
9823;SDS011;4951;50.778;7.196;2023-01-01T00:28:02;3.87;;;2.60;;
9823;SDS011;4951;50.778;7.196;2023-01-01T00:30:38;5.83;;;2.50;;
9823;SDS011;4951;50.778;7.196;2023-01-01T00:33:06;2.70;;;2.33;;
9823;SDS011;4951;50.778;7.196;2023-01-01T00:35:36;5.37;;;2.80;;
9823;SDS011;4951;50.778;7.196;2023-01-01T00:38:05;5.27;;;3.00;;
9823;SDS011;4951;50.778;7.196;2023-01-01T00:40:33;9.40;;;3.40;;
9823;SDS011;4951;50.778;7.196;2023-01-01T00:43:07;6.27;;;4.43;;
9823;SDS011;4951;50.778;7.196;2023-01-01T00:45:34;8.50;;;4.73;;
9823;SDS011;4951;50.778;7.196;2023-01-01T00:48:01;7.13;;;4.77;;
9823;SDS011;4951;50.778;7.196;2023-01-01T00:50:28;7.30;;;5.00;;
9823;SDS011;4951;50.778;7.196;2023-01-01T00:52:57;6.73;;;4.57;;
9823;SDS011;4951;50.778;7.196;2023-01-01T00:55:24;8.80;;;4.70;;
9823;SDS011;4951;50.778;7.196;2023-01-01T00:57:52;7.73;;;4.73;;
9823;SDS011;4951;50.778;7.196;2023-01-01T01:00:29;6.53;;;4.97;;
9823;SDS011;4951;50.778;7.196;2023-01-01T01:03:01;8.03;;;4.10;;
9823;SDS011;4951;50.778;7.196;2023-01-01T01:05:47;5.30;;;4.00;;
9823;SDS011;4951;50.778;7.196;2023-01-01T01:08:16;6.10;;;3.13;;
9823;SDS011;4951;50.778;7.196;2023-01-01T01:10:47;5.33;;;3.53;;
9823;SDS011;4951;50.778;7.196;2023-01-01T01:13:23;4.27;;;3.10;;
9823;SDS011;4951;50.778;7.196;2023-01-01T01:16:10;4.47;;;3.07;;
9823;SDS011;4951;50.778;7.196;2023-01-01T01:18:40;4.73;;;2.73;;
9823;SDS011;4951;50.778;7.196;2023-01-01T01:21:14;6.30;;;2.70;;
9823;SDS011;4951;50.778;7.196;2023-01-01T01:23:42;3.63;;;2.17;;
9823;SDS011;4951;50.778;7.196;2023-01-01T01:26:25;2.80;;;2.37;;
9823;SDS011;4951;50.778;7.196;2023-01-01T01:28:54;3.70;;;2.60;;
9823;SDS011;4951;50.778;7.196;2023-01-01T01:31:54;4.87;;;2.60;;
9823;SDS011;4951;50.778;7.196;2023-01-01T01:34:23;3.73;;;2.10;;
9823;SDS011;4951;50.778;7.196;2023-01-01T01:36:51;3.23;;;2.37;;
9823;SDS011;4951;50.778;7.196;2023-01-01T01:39:23;2.87;;;1.90;;
9823;SDS011;4951;50.778;7.196;2023-01-01T01:41:56;3.17;;;1.90;;
9823;SDS011;4951;50.778;7.196;2023-01-01T01:44:54;2.30;;;1.83;;
9823;SDS011;4951;50.778;7.196;2023-01-01T01:47:41;4.93;;;2.00;;
9823;SDS011;4951;50.778;7.196;2023-01-01T01:50:15;2.93;;;1.90;;
9823;SDS011;4951;50.778;7.196;2023-01-01T01:52:55;2.40;;;1.93;;
9823;SDS011;4951;50.778;7.196;2023-01-01T01:55:31;2.30;;;2.10;;
9823;SDS011;4951;50.778;7.196;2023-01-01T01:58:02;3.60;;;1.90;;
9823;SDS011;4951;50.778;7.196;2023-01-01T02:00:31;4.57;;;1.90;;
9823;SDS011;4951;50.778;7.196;2023-01-01T02:03:02;3.33;;;2.03;;
9823;SDS011;4951;50.778;7.196;2023-01-01T02:05:35;3.93;;;2.20;;
9823;SDS011;4951;50.778;7.196;2023-01-01T02:08:05;4.17;;;1.90;;
9823;SDS011;4951;50.778;7.196;2023-01-01T02:10:34;2.40;;;1.90;;
9823;SDS011;4951;50.778;7.196;2023-01-01T02:13:05;7.07;;;2.27;;
9823;SDS011;4951;50.778;7.196;2023-01-01T02:15:33;2.83;;;1.90;;
9823;SDS011;4951;50.778;7.196;2023-01-01T02:18:11;6.10;;;2.17;;
9823;SDS011;4951;50.778;7.196;2023-01-01T02:20:44;2.50;;;1.80;;
9823;SDS011;4951;50.778;7.196;2023-01-01T02:26:20;4.47;;;2.10;;
9823;SDS011;4951;50.778;7.196;2023-01-01T02:29:15;4.10;;;2.10;;
9823;SDS011;4951;50.778;7.196;2023-01-01T02:32:05;3.50;;;2.20;;
9823;SDS011;4951;50.778;7.196;2023-01-01T02:34:35;5.50;;;2.00;;
9823;SDS011;4951;50.778;7.196;2023-01-01T02:37:07;3.67;;;2.30;;
9823;SDS011;4951;50.778;7.196;2023-01-01T02:39:51;2.47;;;1.90;;
9823;SDS011;4951;50.778;7.196;2023-01-01T02:42:22;3.77;;;1.80;;
9823;SDS011;4951;50.778;7.196;2023-01-01T02:47:42;3.03;;;1.80;;
9823;SDS011;4951;50.778;7.196;2023-01-01T02:50:16;4.40;;;1.80;;
9823;SDS011;4951;50.778;7.196;2023-01-01T02:52:54;3.87;;;2.13;;
9823;SDS011;4951;50.778;7.196;2023-01-01T02:55:46;3.70;;;2.00;;
9823;SDS011;4951;50.778;7.196;2023-01-01T02:58:22;4.17;;;1.97;;
9823;SDS011;4951;50.778;7.196;2023-01-01T03:04:16;4.83;;;1.90;;
9823;SDS011;4951;50.778;7.196;2023-01-01T03:06:52;5.30;;;2.10;;
9823;SDS011;4951;50.778;7.196;2023-01-01T03:09:31;11.10;;;2.13;;
9823;SDS011;4951;50.778;7.196;2023-01-01T03:12:12;3.30;;;2.17;;
9823;SDS011;4951;50.778;7.196;2023-01-01T03:14:50;3.37;;;1.93;;
9823;SDS011;4951;50.778;7.196;2023-01-01T03:17:25;4.27;;;2.00;;
9823;SDS011;4951;50.778;7.196;2023-01-01T03:19:55;3.07;;;1.80;;
9823;SDS011;4951;50.778;7.196;2023-01-01T03:22:29;5.17;;;1.80;;
9823;SDS011;4951;50.778;7.196;2023-01-01T03:25:00;4.37;;;2.47;;
9823;SDS011;4951;50.778;7.196;2023-01-01T03:27:33;5.20;;;1.90;;
9823;SDS011;4951;50.778;7.196;2023-01-01T03:30:11;1.83;;;1.40;;
9823;SDS011;4951;50.778;7.196;2023-01-01T03:32:43;2.53;;;1.80;;
9823;SDS011;4951;50.778;7.196;2023-01-01T03:35:31;2.47;;;1.70;;
9823;SDS011;4951;50.778;7.196;2023-01-01T03:38:04;2.67;;;2.00;;
9823;SDS011;4951;50.778;7.196;2023-01-01T03:40:36;3.50;;;1.77;;
9823;SDS011;4951;50.778;7.196;2023-01-01T03:43:07;3.50;;;1.80;;
9823;SDS011;4951;50.778;7.196;2023-01-01T03:45:55;4.83;;;1.73;;
9823;SDS011;4951;50.778;7.196;2023-01-01T03:48:29;4.70;;;2.10;;
9823;SDS011;4951;50.778;7.196;2023-01-01T03:51:22;5.17;;;2.10;;
9823;SDS011;4951;50.778;7.196;2023-01-01T03:53:55;5.83;;;1.90;;
9823;SDS011;4951;50.778;7.196;2023-01-01T03:56:34;5.20;;;2.30;;
9823;SDS011;4951;50.778;7.196;2023-01-01T03:59:07;2.50;;;1.70;;
9823;SDS011;4951;50.778;7.196;2023-01-01T04:01:41;4.67;;;2.20;;
9823;SDS011;4951;50.778;7.196;2023-01-01T04:04:15;3.70;;;1.90;;
9823;SDS011;4951;50.778;7.196;2023-01-01T04:06:45;3.27;;;1.90;;
9823;SDS011;4951;50.778;7.196;2023-01-01T04:09:27;4.03;;;1.87;;
9823;SDS011;4951;50.778;7.196;2023-01-01T04:11:58;3.03;;;1.60;;
9823;SDS011;4951;50.778;7.196;2023-01-01T04:14:41;4.70;;;1.97;;
9823;SDS011;4951;50.778;7.196;2023-01-01T04:17:10;3.27;;;2.07;;
9823;SDS011;4951;50.778;7.196;2023-01-01T04:19:40;2.83;;;1.90;;
9823;SDS011;4951;50.778;7.196;2023-01-01T04:22:08;4.63;;;1.80;;
9823;SDS011;4951;50.778;7.196;2023-01-01T04:24:35;4.23;;;2.07;;
9823;SDS011;4951;50.778;7.196;2023-01-01T04:27:04;2.83;;;1.60;;
9823;SDS011;4951;50.778;7.196;2023-01-01T04:29:36;2.07;;;1.80;;
9823;SDS011;4951;50.778;7.196;2023-01-01T04:32:06;3.77;;;1.80;;
9823;SDS011;4951;50.778;7.196;2023-01-01T04:34:33;3.33;;;1.80;;
9823;SDS011;4951;50.778;7.196;2023-01-01T04:37:03;3.40;;;1.80;;
9823;SDS011;4951;50.778;7.196;2023-01-01T04:39:36;3.53;;;1.83;;
9823;SDS011;4951;50.778;7.196;2023-01-01T04:42:05;3.53;;;1.57;;
9823;SDS011;4951;50.778;7.196;2023-01-01T04:44:55;2.67;;;1.80;;
9823;SDS011;4951;50.778;7.196;2023-01-01T04:47:37;3.63;;;1.70;;
9823;SDS011;4951;50.778;7.196;2023-01-01T04:50:07;3.30;;;1.90;;
9823;SDS011;4951;50.778;7.196;2023-01-01T04:52:36;2.50;;;1.73;;
9823;SDS011;4951;50.778;7.196;2023-01-01T04:55:05;4.63;;;2.03;;
9823;SDS011;4951;50.778;7.196;2023-01-01T04:57:34;2.13;;;1.50;;
9823;SDS011;4951;50.778;7.196;2023-01-01T05:00:02;3.40;;;1.70;;
9823;SDS011;4951;50.778;7.196;2023-01-01T05:02:30;3.10;;;1.77;;
9823;SDS011;4951;50.778;7.196;2023-01-01T05:04:57;3.70;;;2.20;;
9823;SDS011;4951;50.778;7.196;2023-01-01T05:07:24;2.70;;;1.70;;
9823;SDS011;4951;50.778;7.196;2023-01-01T05:09:54;3.30;;;1.90;;
9823;SDS011;4951;50.778;7.196;2023-01-01T05:12:23;5.73;;;1.90;;
9823;SDS011;4951;50.778;7.196;2023-01-01T05:14:50;3.97;;;1.63;;
9823;SDS011;4951;50.778;7.196;2023-01-01T05:17:18;3.27;;;1.80;;
9823;SDS011;4951;50.778;7.196;2023-01-01T05:19:45;2.87;;;1.70;;
9823;SDS011;4951;50.778;7.196;2023-01-01T05:22:12;1.90;;;1.60;;
9823;SDS011;4951;50.778;7.196;2023-01-01T05:24:39;1.87;;;1.50;;
9823;SDS011;4951;50.778;7.196;2023-01-01T05:27:08;2.63;;;1.70;;
9823;SDS011;4951;50.778;7.196;2023-01-01T05:29:35;3.50;;;2.00;;
9823;SDS011;4951;50.778;7.196;2023-01-01T05:32:05;3.67;;;2.23;;
9823;SDS011;4951;50.778;7.196;2023-01-01T05:34:32;3.43;;;2.40;;
9823;SDS011;4951;50.778;7.196;2023-01-01T05:36:59;3.93;;;1.87;;
9823;SDS011;4951;50.778;7.196;2023-01-01T05:39:27;2.20;;;1.73;;
9823;SDS011;4951;50.778;7.196;2023-01-01T05:44:42;4.43;;;1.70;;
9823;SDS011;4951;50.778;7.196;2023-01-01T05:47:23;4.37;;;1.90;;
9823;SDS011;4951;50.778;7.196;2023-01-01T05:49:50;3.37;;;2.00;;
9823;SDS011;4951;50.778;7.196;2023-01-01T05:52:21;2.57;;;1.83;;
9823;SDS011;4951;50.778;7.196;2023-01-01T05:54:54;3.90;;;1.73;;
9823;SDS011;4951;50.778;7.196;2023-01-01T05:57:38;4.93;;;2.03;;
9823;SDS011;4951;50.778;7.196;2023-01-01T06:00:09;3.23;;;1.80;;
9823;SDS011;4951;50.778;7.196;2023-01-01T06:03:17;4.30;;;1.70;;
9823;SDS011;4951;50.778;7.196;2023-01-01T06:06:01;2.70;;;1.87;;
9823;SDS011;4951;50.778;7.196;2023-01-01T06:08:42;3.27;;;2.10;;
9823;SDS011;4951;50.778;7.196;2023-01-01T06:11:33;3.27;;;2.00;;
9823;SDS011;4951;50.778;7.196;2023-01-01T06:14:10;3.73;;;2.10;;
9823;SDS011;4951;50.778;7.196;2023-01-01T06:16:50;3.77;;;1.93;;
9823;SDS011;4951;50.778;7.196;2023-01-01T06:22:07;3.27;;;1.87;;
9823;SDS011;4951;50.778;7.196;2023-01-01T06:24:37;3.30;;;1.80;;
9823;SDS011;4951;50.778;7.196;2023-01-01T06:27:27;5.00;;;2.00;;
9823;SDS011;4951;50.778;7.196;2023-01-01T06:30:09;2.50;;;1.83;;
9823;SDS011;4951;50.778;7.196;2023-01-01T06:32:37;3.40;;;2.00;;
9823;SDS011;4951;50.778;7.196;2023-01-01T06:35:06;2.17;;;1.70;;
9823;SDS011;4951;50.778;7.196;2023-01-01T06:37:38;2.37;;;1.80;;
9823;SDS011;4951;50.778;7.196;2023-01-01T06:40:06;5.03;;;2.10;;
9823;SDS011;4951;50.778;7.196;2023-01-01T06:42:34;4.03;;;2.23;;
9823;SDS011;4951;50.778;7.196;2023-01-01T06:45:02;4.43;;;2.10;;
9823;SDS011;4951;50.778;7.196;2023-01-01T06:47:33;3.23;;;1.97;;
9823;SDS011;4951;50.778;7.196;2023-01-01T06:50:01;3.10;;;1.70;;
9823;SDS011;4951;50.778;7.196;2023-01-01T06:52:29;4.13;;;1.73;;
9823;SDS011;4951;50.778;7.196;2023-01-01T06:54:56;3.23;;;2.20;;
9823;SDS011;4951;50.778;7.196;2023-01-01T06:57:23;3.07;;;1.73;;
9823;SDS011;4951;50.778;7.196;2023-01-01T06:59:51;4.73;;;2.00;;
9823;SDS011;4951;50.778;7.196;2023-01-01T07:02:18;3.13;;;1.70;;
9823;SDS011;4951;50.778;7.196;2023-01-01T07:04:46;4.77;;;1.87;;
9823;SDS011;4951;50.778;7.196;2023-01-01T07:07:14;4.13;;;1.87;;
9823;SDS011;4951;50.778;7.196;2023-01-01T07:09:52;3.87;;;1.90;;
9823;SDS011;4951;50.778;7.196;2023-01-01T07:12:28;5.13;;;2.00;;
9823;SDS011;4951;50.778;7.196;2023-01-01T07:14:57;3.57;;;2.00;;
9823;SDS011;4951;50.778;7.196;2023-01-01T07:17:28;4.53;;;1.87;;
9823;SDS011;4951;50.778;7.196;2023-01-01T07:19:58;6.57;;;2.10;;
9823;SDS011;4951;50.778;7.196;2023-01-01T07:22:39;4.10;;;2.10;;
9823;SDS011;4951;50.778;7.196;2023-01-01T07:25:13;3.87;;;1.83;;
9823;SDS011;4951;50.778;7.196;2023-01-01T07:27:49;4.03;;;1.83;;
9823;SDS011;4951;50.778;7.196;2023-01-01T07:30:24;2.80;;;1.80;;
9823;SDS011;4951;50.778;7.196;2023-01-01T07:33:09;5.90;;;2.30;;
9823;SDS011;4951;50.778;7.196;2023-01-01T07:35:39;4.00;;;1.77;;
9823;SDS011;4951;50.778;7.196;2023-01-01T07:38:18;4.33;;;2.30;;
9823;SDS011;4951;50.778;7.196;2023-01-01T07:40:49;4.30;;;2.20;;
9823;SDS011;4951;50.778;7.196;2023-01-01T07:43:17;5.83;;;2.20;;
9823;SDS011;4951;50.778;7.196;2023-01-01T07:45:44;4.30;;;2.40;;
9823;SDS011;4951;50.778;7.196;2023-01-01T07:48:12;4.63;;;1.90;;
9823;SDS011;4951;50.778;7.196;2023-01-01T07:50:42;2.90;;;1.93;;
9823;SDS011;4951;50.778;7.196;2023-01-01T07:53:13;5.50;;;1.97;;
9823;SDS011;4951;50.778;7.196;2023-01-01T07:55:47;4.23;;;2.10;;
9823;SDS011;4951;50.778;7.196;2023-01-01T07:58:16;3.50;;;2.20;;
9823;SDS011;4951;50.778;7.196;2023-01-01T08:00:44;3.60;;;1.83;;
9823;SDS011;4951;50.778;7.196;2023-01-01T08:03:13;5.60;;;1.97;;
9823;SDS011;4951;50.778;7.196;2023-01-01T08:05:42;3.90;;;1.90;;
9823;SDS011;4951;50.778;7.196;2023-01-01T08:08:09;4.03;;;1.93;;
9823;SDS011;4951;50.778;7.196;2023-01-01T08:10:38;5.37;;;2.13;;
9823;SDS011;4951;50.778;7.196;2023-01-01T08:13:06;3.83;;;1.73;;
9823;SDS011;4951;50.778;7.196;2023-01-01T08:15:34;4.93;;;1.87;;
9823;SDS011;4951;50.778;7.196;2023-01-01T08:18:02;9.40;;;2.50;;
9823;SDS011;4951;50.778;7.196;2023-01-01T08:20:30;4.50;;;2.07;;
9823;SDS011;4951;50.778;7.196;2023-01-01T08:23:02;5.60;;;2.27;;
9823;SDS011;4951;50.778;7.196;2023-01-01T08:25:29;5.60;;;2.17;;
9823;SDS011;4951;50.778;7.196;2023-01-01T08:27:56;5.40;;;2.13;;
9823;SDS011;4951;50.778;7.196;2023-01-01T08:30:23;4.23;;;1.97;;
9823;SDS011;4951;50.778;7.196;2023-01-01T08:32:50;5.67;;;2.20;;
9823;SDS011;4951;50.778;7.196;2023-01-01T08:35:18;3.23;;;1.80;;
9823;SDS011;4951;50.778;7.196;2023-01-01T08:37:45;7.60;;;2.30;;
9823;SDS011;4951;50.778;7.196;2023-01-01T08:40:15;6.37;;;2.47;;
9823;SDS011;4951;50.778;7.196;2023-01-01T08:42:42;5.97;;;2.20;;
9823;SDS011;4951;50.778;7.196;2023-01-01T08:45:10;3.77;;;2.20;;
9823;SDS011;4951;50.778;7.196;2023-01-01T08:47:39;4.87;;;2.30;;
9823;SDS011;4951;50.778;7.196;2023-01-01T08:50:07;3.53;;;1.90;;
9823;SDS011;4951;50.778;7.196;2023-01-01T08:52:37;3.83;;;2.00;;
9823;SDS011;4951;50.778;7.196;2023-01-01T08:55:05;5.50;;;2.07;;
9823;SDS011;4951;50.778;7.196;2023-01-01T08:57:37;5.63;;;1.90;;
9823;SDS011;4951;50.778;7.196;2023-01-01T09:00:05;4.37;;;2.27;;
9823;SDS011;4951;50.778;7.196;2023-01-01T09:02:33;6.03;;;2.20;;
9823;SDS011;4951;50.778;7.196;2023-01-01T09:05:02;4.57;;;2.30;;
9823;SDS011;4951;50.778;7.196;2023-01-01T09:07:47;5.30;;;2.03;;
9823;SDS011;4951;50.778;7.196;2023-01-01T09:10:20;4.93;;;2.27;;
9823;SDS011;4951;50.778;7.196;2023-01-01T09:13:04;4.13;;;2.10;;
9823;SDS011;4951;50.778;7.196;2023-01-01T09:15:32;5.23;;;2.23;;
9823;SDS011;4951;50.778;7.196;2023-01-01T09:18:09;6.30;;;2.37;;
9823;SDS011;4951;50.778;7.196;2023-01-01T09:20:38;5.27;;;2.33;;
9823;SDS011;4951;50.778;7.196;2023-01-01T09:23:06;4.43;;;1.60;;
9823;SDS011;4951;50.778;7.196;2023-01-01T09:25:34;4.53;;;2.27;;
9823;SDS011;4951;50.778;7.196;2023-01-01T09:28:03;4.03;;;2.30;;
9823;SDS011;4951;50.778;7.196;2023-01-01T09:30:32;5.53;;;2.57;;
9823;SDS011;4951;50.778;7.196;2023-01-01T09:32:59;4.13;;;2.20;;
9823;SDS011;4951;50.778;7.196;2023-01-01T09:35:27;4.97;;;2.10;;
9823;SDS011;4951;50.778;7.196;2023-01-01T09:37:55;6.70;;;2.00;;
9823;SDS011;4951;50.778;7.196;2023-01-01T09:40:25;6.43;;;2.47;;
9823;SDS011;4951;50.778;7.196;2023-01-01T09:43:02;8.30;;;2.27;;
9823;SDS011;4951;50.778;7.196;2023-01-01T09:45:39;7.67;;;2.13;;
9823;SDS011;4951;50.778;7.196;2023-01-01T09:48:14;5.40;;;2.23;;
9823;SDS011;4951;50.778;7.196;2023-01-01T09:50:50;6.27;;;2.50;;
9823;SDS011;4951;50.778;7.196;2023-01-01T09:53:19;3.90;;;1.87;;
9823;SDS011;4951;50.778;7.196;2023-01-01T09:55:52;4.93;;;1.93;;
9823;SDS011;4951;50.778;7.196;2023-01-01T09:58:24;4.33;;;2.20;;
9823;SDS011;4951;50.778;7.196;2023-01-01T10:00:54;4.43;;;2.10;;
9823;SDS011;4951;50.778;7.196;2023-01-01T10:03:30;6.87;;;2.00;;
9823;SDS011;4951;50.778;7.196;2023-01-01T10:06:19;3.27;;;1.87;;
9823;SDS011;4951;50.778;7.196;2023-01-01T10:09:00;7.60;;;2.10;;
9823;SDS011;4951;50.778;7.196;2023-01-01T10:11:38;6.20;;;2.17;;
9823;SDS011;4951;50.778;7.196;2023-01-01T10:14:17;5.83;;;2.03;;
9823;SDS011;4951;50.778;7.196;2023-01-01T10:16:50;5.60;;;2.00;;
9823;SDS011;4951;50.778;7.196;2023-01-01T10:19:23;4.87;;;1.93;;
9823;SDS011;4951;50.778;7.196;2023-01-01T10:21:56;4.37;;;2.10;;
9823;SDS011;4951;50.778;7.196;2023-01-01T10:24:36;3.33;;;2.00;;
9823;SDS011;4951;50.778;7.196;2023-01-01T10:27:08;4.93;;;1.90;;
9823;SDS011;4951;50.778;7.196;2023-01-01T10:29:49;4.37;;;1.80;;
9823;SDS011;4951;50.778;7.196;2023-01-01T10:32:19;3.60;;;1.83;;
9823;SDS011;4951;50.778;7.196;2023-01-01T10:34:47;4.23;;;1.93;;
9823;SDS011;4951;50.778;7.196;2023-01-01T10:37:16;4.20;;;1.90;;
9823;SDS011;4951;50.778;7.196;2023-01-01T10:39:44;6.03;;;2.10;;
9823;SDS011;4951;50.778;7.196;2023-01-01T10:42:13;5.17;;;2.00;;
9823;SDS011;4951;50.778;7.196;2023-01-01T10:44:40;5.90;;;2.10;;
9823;SDS011;4951;50.778;7.196;2023-01-01T10:50:01;8.10;;;2.10;;
9823;SDS011;4951;50.778;7.196;2023-01-01T10:52:33;5.03;;;1.97;;
9823;SDS011;4951;50.778;7.196;2023-01-01T10:55:03;3.47;;;1.83;;
9823;SDS011;4951;50.778;7.196;2023-01-01T10:57:32;4.67;;;1.83;;
9823;SDS011;4951;50.778;7.196;2023-01-01T11:00:10;3.53;;;1.63;;
9823;SDS011;4951;50.778;7.196;2023-01-01T11:05:41;7.00;;;2.30;;
9823;SDS011;4951;50.778;7.196;2023-01-01T11:08:27;7.03;;;1.90;;
9823;SDS011;4951;50.778;7.196;2023-01-01T11:10:56;5.63;;;2.10;;
9823;SDS011;4951;50.778;7.196;2023-01-01T11:13:28;8.70;;;2.27;;
9823;SDS011;4951;50.778;7.196;2023-01-01T11:15:56;5.10;;;2.00;;
9823;SDS011;4951;50.778;7.196;2023-01-01T11:18:33;5.80;;;2.10;;
9823;SDS011;4951;50.778;7.196;2023-01-01T11:21:01;4.73;;;2.17;;
9823;SDS011;4951;50.778;7.196;2023-01-01T11:23:31;6.03;;;2.23;;
9823;SDS011;4951;50.778;7.196;2023-01-01T11:26:02;4.37;;;1.80;;
9823;SDS011;4951;50.778;7.196;2023-01-01T11:28:32;5.20;;;2.47;;
9823;SDS011;4951;50.778;7.196;2023-01-01T11:31:09;5.40;;;2.30;;
9823;SDS011;4951;50.778;7.196;2023-01-01T11:33:47;5.73;;;2.40;;
9823;SDS011;4951;50.778;7.196;2023-01-01T11:36:21;6.97;;;2.07;;
9823;SDS011;4951;50.778;7.196;2023-01-01T11:39:03;6.07;;;2.50;;
9823;SDS011;4951;50.778;7.196;2023-01-01T11:41:47;5.20;;;2.30;;
9823;SDS011;4951;50.778;7.196;2023-01-01T11:44:23;5.53;;;2.30;;
9823;SDS011;4951;50.778;7.196;2023-01-01T11:46:55;7.40;;;2.30;;
9823;SDS011;4951;50.778;7.196;2023-01-01T11:49:26;6.30;;;2.17;;
9823;SDS011;4951;50.778;7.196;2023-01-01T11:52:24;6.17;;;2.00;;
9823;SDS011;4951;50.778;7.196;2023-01-01T11:55:11;6.57;;;2.07;;
9823;SDS011;4951;50.778;7.196;2023-01-01T11:57:50;4.90;;;2.17;;
9823;SDS011;4951;50.778;7.196;2023-01-01T12:00:33;4.40;;;1.90;;
9823;SDS011;4951;50.778;7.196;2023-01-01T12:03:32;5.10;;;2.20;;
9823;SDS011;4951;50.778;7.196;2023-01-01T12:06:09;5.33;;;2.10;;
9823;SDS011;4951;50.778;7.196;2023-01-01T12:08:46;5.47;;;1.87;;
9823;SDS011;4951;50.778;7.196;2023-01-01T12:11:35;4.83;;;2.10;;
9823;SDS011;4951;50.778;7.196;2023-01-01T12:14:29;4.17;;;1.97;;
9823;SDS011;4951;50.778;7.196;2023-01-01T12:17:08;4.70;;;1.70;;
9823;SDS011;4951;50.778;7.196;2023-01-01T12:19:47;4.17;;;2.10;;
9823;SDS011;4951;50.778;7.196;2023-01-01T12:22:52;5.17;;;2.10;;
9823;SDS011;4951;50.778;7.196;2023-01-01T12:25:21;7.03;;;2.03;;
9823;SDS011;4951;50.778;7.196;2023-01-01T12:27:59;3.77;;;1.70;;
9823;SDS011;4951;50.778;7.196;2023-01-01T12:30:41;7.03;;;2.27;;
9823;SDS011;4951;50.778;7.196;2023-01-01T12:33:42;4.63;;;2.40;;
9823;SDS011;4951;50.778;7.196;2023-01-01T12:36:50;6.90;;;2.20;;
9823;SDS011;4951;50.778;7.196;2023-01-01T12:42:33;5.73;;;2.37;;
9823;SDS011;4951;50.778;7.196;2023-01-01T12:45:20;6.13;;;1.80;;
9823;SDS011;4951;50.778;7.196;2023-01-01T12:48:27;5.80;;;2.17;;
9823;SDS011;4951;50.778;7.196;2023-01-01T12:51:36;5.40;;;1.97;;
9823;SDS011;4951;50.778;7.196;2023-01-01T12:54:25;4.87;;;2.20;;
9823;SDS011;4951;50.778;7.196;2023-01-01T12:57:12;3.57;;;2.00;;
9823;SDS011;4951;50.778;7.196;2023-01-01T12:59:50;3.93;;;2.23;;
9823;SDS011;4951;50.778;7.196;2023-01-01T13:02:19;5.10;;;2.30;;
9823;SDS011;4951;50.778;7.196;2023-01-01T13:04:57;4.93;;;2.30;;
9823;SDS011;4951;50.778;7.196;2023-01-01T13:07:35;3.90;;;2.00;;
9823;SDS011;4951;50.778;7.196;2023-01-01T13:10:15;6.10;;;2.10;;
9823;SDS011;4951;50.778;7.196;2023-01-01T13:13:03;5.77;;;2.03;;
9823;SDS011;4951;50.778;7.196;2023-01-01T13:18:26;5.53;;;2.10;;
9823;SDS011;4951;50.778;7.196;2023-01-01T13:21:04;4.00;;;2.00;;
9823;SDS011;4951;50.778;7.196;2023-01-01T13:23:49;5.50;;;2.20;;
9823;SDS011;4951;50.778;7.196;2023-01-01T13:26:38;4.27;;;1.90;;
9823;SDS011;4951;50.778;7.196;2023-01-01T13:29:28;3.37;;;2.20;;
9823;SDS011;4951;50.778;7.196;2023-01-01T13:32:18;5.53;;;1.90;;
9823;SDS011;4951;50.778;7.196;2023-01-01T13:37:30;4.93;;;1.80;;
9823;SDS011;4951;50.778;7.196;2023-01-01T13:40:47;3.10;;;2.07;;
9823;SDS011;4951;50.778;7.196;2023-01-01T13:43:29;6.20;;;2.40;;
9823;SDS011;4951;50.778;7.196;2023-01-01T13:46:02;5.73;;;2.10;;
9823;SDS011;4951;50.778;7.196;2023-01-01T13:49:10;4.27;;;2.30;;
9823;SDS011;4951;50.778;7.196;2023-01-01T13:55:45;5.27;;;2.53;;
9823;SDS011;4951;50.778;7.196;2023-01-01T13:59:04;3.10;;;1.80;;
9823;SDS011;4951;50.778;7.196;2023-01-01T14:01:59;4.40;;;1.80;;
9823;SDS011;4951;50.778;7.196;2023-01-01T14:04:47;4.43;;;1.77;;
9823;SDS011;4951;50.778;7.196;2023-01-01T14:07:30;2.63;;;1.97;;
9823;SDS011;4951;50.778;7.196;2023-01-01T14:10:18;4.37;;;1.70;;
9823;SDS011;4951;50.778;7.196;2023-01-01T14:12:59;7.83;;;2.37;;
9823;SDS011;4951;50.778;7.196;2023-01-01T14:15:58;3.10;;;1.80;;
9823;SDS011;4951;50.778;7.196;2023-01-01T14:18:33;4.27;;;2.20;;
9823;SDS011;4951;50.778;7.196;2023-01-01T14:21:08;3.83;;;2.40;;
9823;SDS011;4951;50.778;7.196;2023-01-01T14:23:40;4.30;;;2.80;;
9823;SDS011;4951;50.778;7.196;2023-01-01T14:26:15;4.80;;;2.70;;
9823;SDS011;4951;50.778;7.196;2023-01-01T14:29:01;5.90;;;2.07;;
9823;SDS011;4951;50.778;7.196;2023-01-01T14:31:34;3.03;;;1.90;;
9823;SDS011;4951;50.778;7.196;2023-01-01T14:34:12;5.03;;;2.20;;
9823;SDS011;4951;50.778;7.196;2023-01-01T14:36:49;3.53;;;1.97;;
9823;SDS011;4951;50.778;7.196;2023-01-01T14:39:21;3.33;;;2.00;;
9823;SDS011;4951;50.778;7.196;2023-01-01T14:41:52;3.53;;;1.93;;
9823;SDS011;4951;50.778;7.196;2023-01-01T14:44:20;2.50;;;1.70;;
9823;SDS011;4951;50.778;7.196;2023-01-01T14:46:53;6.50;;;2.23;;
9823;SDS011;4951;50.778;7.196;2023-01-01T14:49:22;3.20;;;1.77;;
9823;SDS011;4951;50.778;7.196;2023-01-01T14:51:56;4.93;;;1.87;;
9823;SDS011;4951;50.778;7.196;2023-01-01T14:54:29;6.33;;;2.13;;
9823;SDS011;4951;50.778;7.196;2023-01-01T14:56:57;3.20;;;1.80;;
9823;SDS011;4951;50.778;7.196;2023-01-01T14:59:25;5.23;;;2.40;;
9823;SDS011;4951;50.778;7.196;2023-01-01T15:01:58;5.27;;;2.00;;
9823;SDS011;4951;50.778;7.196;2023-01-01T15:04:27;5.17;;;2.27;;
9823;SDS011;4951;50.778;7.196;2023-01-01T15:06:58;3.33;;;1.80;;
9823;SDS011;4951;50.778;7.196;2023-01-01T15:09:27;5.10;;;2.20;;
9823;SDS011;4951;50.778;7.196;2023-01-01T15:11:57;6.00;;;2.17;;
9823;SDS011;4951;50.778;7.196;2023-01-01T15:14:29;4.07;;;1.93;;
9823;SDS011;4951;50.778;7.196;2023-01-01T15:16:58;3.70;;;1.97;;
9823;SDS011;4951;50.778;7.196;2023-01-01T15:19:26;5.40;;;2.20;;
9823;SDS011;4951;50.778;7.196;2023-01-01T15:21:55;3.90;;;2.37;;
9823;SDS011;4951;50.778;7.196;2023-01-01T15:24:23;4.67;;;2.17;;
9823;SDS011;4951;50.778;7.196;2023-01-01T15:26:54;3.40;;;2.13;;
9823;SDS011;4951;50.778;7.196;2023-01-01T15:29:25;3.93;;;2.30;;
9823;SDS011;4951;50.778;7.196;2023-01-01T15:32:08;2.90;;;2.17;;
9823;SDS011;4951;50.778;7.196;2023-01-01T15:34:40;3.77;;;2.43;;
9823;SDS011;4951;50.778;7.196;2023-01-01T15:37:11;6.63;;;2.83;;
9823;SDS011;4951;50.778;7.196;2023-01-01T15:39:45;9.83;;;3.97;;
9823;SDS011;4951;50.778;7.196;2023-01-01T15:42:22;6.33;;;3.10;;
9823;SDS011;4951;50.778;7.196;2023-01-01T15:45:06;9.47;;;6.27;;
9823;SDS011;4951;50.778;7.196;2023-01-01T15:47:39;10.57;;;6.03;;
9823;SDS011;4951;50.778;7.196;2023-01-01T15:50:08;5.43;;;3.20;;
9823;SDS011;4951;50.778;7.196;2023-01-01T15:52:38;7.70;;;2.90;;
9823;SDS011;4951;50.778;7.196;2023-01-01T15:55:11;5.00;;;2.80;;
9823;SDS011;4951;50.778;7.196;2023-01-01T15:57:42;3.77;;;2.90;;
9823;SDS011;4951;50.778;7.196;2023-01-01T16:00:16;7.70;;;2.50;;
9823;SDS011;4951;50.778;7.196;2023-01-01T16:02:45;4.17;;;2.70;;
9823;SDS011;4951;50.778;7.196;2023-01-01T16:05:13;6.07;;;2.40;;
9823;SDS011;4951;50.778;7.196;2023-01-01T16:07:43;3.03;;;2.10;;
9823;SDS011;4951;50.778;7.196;2023-01-01T16:10:12;4.57;;;2.30;;
9823;SDS011;4951;50.778;7.196;2023-01-01T16:12:42;3.70;;;2.20;;
9823;SDS011;4951;50.778;7.196;2023-01-01T16:15:13;3.77;;;2.13;;
9823;SDS011;4951;50.778;7.196;2023-01-01T16:17:44;6.43;;;2.50;;
9823;SDS011;4951;50.778;7.196;2023-01-01T16:20:17;6.53;;;2.70;;
9823;SDS011;4951;50.778;7.196;2023-01-01T16:23:03;3.63;;;2.70;;
9823;SDS011;4951;50.778;7.196;2023-01-01T16:25:32;5.40;;;3.00;;
9823;SDS011;4951;50.778;7.196;2023-01-01T16:27:59;6.10;;;2.80;;
9823;SDS011;4951;50.778;7.196;2023-01-01T16:30:28;4.90;;;2.83;;
9823;SDS011;4951;50.778;7.196;2023-01-01T16:32:55;4.80;;;2.70;;
9823;SDS011;4951;50.778;7.196;2023-01-01T16:35:23;5.13;;;2.73;;